createdAt,value
2023-01-26T00:00:00.203Z,61.70
2023-01-26T00:01:00.156Z,62.20
2023-01-26T00:02:00.116Z,62.50
2023-01-26T00:03:00.106Z,61.30
2023-01-26T00:04:00.110Z,61.80
2023-01-26T00:04:59.971Z,61.90
2023-01-26T00:05:59.923Z,61.00
2023-01-26T00:06:59.877Z,61.60
2023-01-26T00:07:59.829Z,61.70
2023-01-26T00:08:59.791Z,60.40
2023-01-26T00:09:59.745Z,60.60
2023-01-26T00:10:59.683Z,60.30
2023-01-26T00:11:59.650Z,59.40
2023-01-26T00:12:59.595Z,60.40
2023-01-26T00:13:59.546Z,59.00
2023-01-26T00:14:59.503Z,61.30
2023-01-26T00:15:59.477Z,60.70
2023-01-26T00:16:59.403Z,61.30
2023-01-26T00:17:59.370Z,60.90
2023-01-26T00:18:59.312Z,60.00
2023-01-26T00:19:59.301Z,59.70
2023-01-26T00:20:59.219Z,59.60
2023-01-26T00:21:59.171Z,60.10
2023-01-26T00:22:59.118Z,59.60
2023-01-26T00:23:59.145Z,59.30
2023-01-26T00:24:59.031Z,59.50
2023-01-26T00:25:58.984Z,59.50
2023-01-26T00:26:58.929Z,60.10
2023-01-26T00:27:58.887Z,60.30
2023-01-26T00:28:58.837Z,61.20
2023-01-26T00:29:58.801Z,61.70
2023-01-26T00:30:58.749Z,60.50
2023-01-26T00:31:58.701Z,61.30
2023-01-26T00:32:58.646Z,61.80
2023-01-26T00:33:58.605Z,60.30
2023-01-26T00:34:58.554Z,61.20
2023-01-26T00:35:58.536Z,60.90
2023-01-26T00:36:58.461Z,62.00
2023-01-26T00:37:58.435Z,59.90
2023-01-26T00:38:58.368Z,60.50
2023-01-26T00:39:58.322Z,60.80
2023-01-26T00:40:58.275Z,60.60
2023-01-26T00:41:58.249Z,60.60
2023-01-26T00:42:58.181Z,60.70
2023-01-26T00:43:58.135Z,60.30
2023-01-26T00:44:58.085Z,59.90
2023-01-26T00:45:58.039Z,61.30
2023-01-26T00:46:58.001Z,59.20
2023-01-26T00:47:57.947Z,60.40
2023-01-26T00:48:57.897Z,59.00
2023-01-26T00:49:57.851Z,60.40
2023-01-26T00:50:57.801Z,59.70
2023-01-26T00:51:57.758Z,59.00
2023-01-26T00:52:57.715Z,60.60
2023-01-26T00:53:57.681Z,59.60
2023-01-26T00:54:57.611Z,60.00
2023-01-26T00:55:57.570Z,61.00
2023-01-26T00:56:57.519Z,60.80
2023-01-26T00:57:57.473Z,61.60
2023-01-26T00:58:57.422Z,61.20
2023-01-26T00:59:57.408Z,60.70
2023-01-26T01:00:57.385Z,61.90
2023-01-26T01:01:57.328Z,61.10
2023-01-26T01:02:57.235Z,63.10
2023-01-26T01:03:57.199Z,62.10
2023-01-26T01:04:57.143Z,61.10
2023-01-26T01:05:57.096Z,62.40
2023-01-26T01:06:57.058Z,61.90
2023-01-26T01:07:57.005Z,62.50
2023-01-26T01:08:56.966Z,61.40
2023-01-26T01:09:56.913Z,62.90
2023-01-26T01:10:56.870Z,61.20
2023-01-26T01:11:56.811Z,62.90
2023-01-26T01:12:56.949Z,61.40
2023-01-26T01:13:56.730Z,60.50
2023-01-26T01:14:56.668Z,62.60
2023-01-26T01:15:56.659Z,61.90
2023-01-26T01:16:56.579Z,62.00
2023-01-26T01:17:56.535Z,63.10
2023-01-26T01:18:56.482Z,60.20
2023-01-26T01:19:56.459Z,62.00
2023-01-26T01:20:56.395Z,61.70
2023-01-26T01:21:56.339Z,60.60
2023-01-26T01:22:56.291Z,63.20
2023-01-26T01:23:56.274Z,60.90
2023-01-26T01:24:56.195Z,60.60
2023-01-26T01:25:56.158Z,61.30
2023-01-26T01:26:56.110Z,59.90
2023-01-26T01:27:56.079Z,59.40
2023-01-26T01:28:56.011Z,61.30
2023-01-26T01:29:55.968Z,61.90
2023-01-26T01:30:55.927Z,61.10
2023-01-26T01:31:55.904Z,62.00
2023-01-26T01:32:55.819Z,61.90
2023-01-26T01:33:55.785Z,60.80
2023-01-26T01:34:55.720Z,61.70
2023-01-26T01:35:55.689Z,62.40
2023-01-26T01:36:55.631Z,60.90
2023-01-26T01:37:55.582Z,61.50
2023-01-26T01:38:55.531Z,61.10
2023-01-26T01:39:55.489Z,61.60
2023-01-26T01:40:55.441Z,62.00
2023-01-26T01:41:55.402Z,63.00
2023-01-26T01:42:55.342Z,62.80
2023-01-26T01:43:55.299Z,62.40
2023-01-26T01:44:55.254Z,62.20
2023-01-26T01:45:55.257Z,62.00
2023-01-26T01:46:55.202Z,61.40
2023-01-26T01:47:55.106Z,61.70
2023-01-26T01:48:55.062Z,61.90
2023-01-26T01:49:55.022Z,62.20
2023-01-26T01:50:54.970Z,62.90
2023-01-26T01:51:54.942Z,63.00
2023-01-26T01:52:54.880Z,60.70
2023-01-26T01:53:54.828Z,60.70
2023-01-26T01:54:54.791Z,61.10
2023-01-26T01:55:54.729Z,61.20
2023-01-26T01:56:54.685Z,60.70
2023-01-26T01:57:54.650Z,61.00
2023-01-26T01:58:54.587Z,61.50
2023-01-26T01:59:54.549Z,62.10
2023-01-26T02:00:54.512Z,61.90
2023-01-26T02:01:54.470Z,62.40
2023-01-26T02:02:54.400Z,62.50
2023-01-26T02:03:54.371Z,62.30
2023-01-26T02:04:54.304Z,63.60
2023-01-26T02:05:54.261Z,61.80
2023-01-26T02:06:54.216Z,61.90
2023-01-26T02:07:54.163Z,63.50
2023-01-26T02:08:54.144Z,63.00
2023-01-26T02:09:54.070Z,60.70
2023-01-26T02:10:54.024Z,62.80
2023-01-26T02:11:53.972Z,62.80
2023-01-26T02:12:53.923Z,62.10
2023-01-26T02:13:53.886Z,61.40
2023-01-26T02:14:53.851Z,62.20
2023-01-26T02:15:53.821Z,62.30
2023-01-26T02:16:53.741Z,63.20
2023-01-26T02:17:53.700Z,63.40
2023-01-26T02:18:53.648Z,61.90
2023-01-26T02:19:53.595Z,63.10
2023-01-26T02:20:53.559Z,62.30
2023-01-26T02:21:53.502Z,61.60
2023-01-26T02:22:53.471Z,62.50
2023-01-26T02:23:53.446Z,63.20
2023-01-26T02:24:53.358Z,64.00
2023-01-26T02:25:53.312Z,63.60
2023-01-26T02:26:53.278Z,63.90
2023-01-26T02:27:53.219Z,64.10
2023-01-26T02:28:53.182Z,63.80
2023-01-26T02:29:53.131Z,63.80
2023-01-26T02:30:53.120Z,64.10
2023-01-26T02:31:53.126Z,63.40
2023-01-26T02:32:53.017Z,63.10
2023-01-26T02:33:52.935Z,63.90
2023-01-26T02:34:52.954Z,62.70
2023-01-26T02:35:52.843Z,61.20
2023-01-26T02:36:52.812Z,61.10
2023-01-26T02:37:52.745Z,62.30
2023-01-26T02:38:52.697Z,63.60
2023-01-26T02:39:52.663Z,62.30
2023-01-26T02:40:52.606Z,61.90
2023-01-26T02:41:52.555Z,62.90
2023-01-26T02:42:52.538Z,63.30
2023-01-26T02:43:52.460Z,63.50
2023-01-26T02:44:52.419Z,62.90
2023-01-26T02:45:52.369Z,61.50
2023-01-26T02:46:52.337Z,60.30
2023-01-26T02:47:52.276Z,61.20
2023-01-26T02:48:52.243Z,61.20
2023-01-26T02:49:52.178Z,61.60
2023-01-26T02:50:52.140Z,62.70
2023-01-26T02:51:52.101Z,60.90
2023-01-26T02:52:52.048Z,60.90
2023-01-26T02:53:51.989Z,61.60
2023-01-26T02:54:51.966Z,61.30
2023-01-26T02:55:51.895Z,62.80
2023-01-26T02:56:51.854Z,62.10
2023-01-26T02:57:51.806Z,65.20
2023-01-26T02:58:51.758Z,63.80
2023-01-26T02:59:51.721Z,64.80
2023-01-26T03:00:51.729Z,63.30
2023-01-26T03:01:51.672Z,63.40
2023-01-26T03:02:51.573Z,64.90
2023-01-26T03:03:51.532Z,65.90
2023-01-26T03:04:51.482Z,63.30
2023-01-26T03:05:51.439Z,63.20
2023-01-26T03:06:51.385Z,64.10
2023-01-26T03:07:51.334Z,65.00
2023-01-26T03:08:51.289Z,63.00
2023-01-26T03:09:51.240Z,65.10
2023-01-26T03:10:51.194Z,63.60
2023-01-26T03:11:51.155Z,62.70
2023-01-26T03:12:51.119Z,64.00
2023-01-26T03:13:51.053Z,63.80
2023-01-26T03:14:51.003Z,63.60
2023-01-26T03:15:51.001Z,62.30
2023-01-26T03:16:50.911Z,62.20
2023-01-26T03:17:50.864Z,62.30
2023-01-26T03:18:50.830Z,62.30
2023-01-26T03:19:50.762Z,61.70
2023-01-26T03:20:50.724Z,61.00
2023-01-26T03:21:50.668Z,62.70
2023-01-26T03:22:50.625Z,61.10
2023-01-26T03:23:50.613Z,60.80
2023-01-26T03:24:50.556Z,61.10
2023-01-26T03:25:50.484Z,61.20
2023-01-26T03:26:50.436Z,63.00
2023-01-26T03:27:50.393Z,60.70
2023-01-26T03:28:50.347Z,61.40
2023-01-26T03:29:50.312Z,60.10
2023-01-26T03:30:50.276Z,60.00
2023-01-26T03:31:50.197Z,60.70
2023-01-26T03:32:50.162Z,60.00
2023-01-26T03:33:50.112Z,62.60
2023-01-26T03:34:50.069Z,60.10
2023-01-26T03:35:50.027Z,60.90
2023-01-26T03:36:49.967Z,62.50
2023-01-26T03:37:49.921Z,61.10
2023-01-26T03:38:49.883Z,60.00
2023-01-26T03:39:49.820Z,60.50
2023-01-26T03:40:49.778Z,60.60
2023-01-26T03:41:49.745Z,60.10
2023-01-26T03:42:49.680Z,59.80
2023-01-26T03:43:49.634Z,58.90
2023-01-26T03:44:49.595Z,60.30
2023-01-26T03:45:49.549Z,60.00
2023-01-26T03:46:49.607Z,59.90
2023-01-26T03:47:49.442Z,60.90
2023-01-26T03:48:49.398Z,58.30
2023-01-26T03:49:49.350Z,60.40
2023-01-26T03:50:49.319Z,60.40
2023-01-26T03:51:49.255Z,59.70
2023-01-26T03:52:49.211Z,58.90
2023-01-26T03:53:49.165Z,58.90
2023-01-26T03:54:49.119Z,60.10
2023-01-26T03:55:49.069Z,59.30
2023-01-26T03:56:49.048Z,60.10
2023-01-26T03:57:48.981Z,58.50
2023-01-26T03:58:48.930Z,59.50
2023-01-26T03:59:48.878Z,58.40
2023-01-26T04:00:48.876Z,58.30
2023-01-26T04:01:48.801Z,58.30
2023-01-26T04:02:48.758Z,56.40
2023-01-26T04:03:48.689Z,58.40
2023-01-26T04:04:48.649Z,60.30
2023-01-26T04:05:48.622Z,57.80
2023-01-26T04:06:48.549Z,58.50
2023-01-26T04:07:48.502Z,58.90
2023-01-26T04:08:48.490Z,58.30
2023-01-26T04:09:48.412Z,57.90
2023-01-26T04:10:48.364Z,57.50
2023-01-26T04:11:48.312Z,57.30
2023-01-26T04:12:48.807Z,57.10
2023-01-26T04:13:48.229Z,56.80
2023-01-26T04:14:49.317Z,59.10
2023-01-26T04:15:48.128Z,56.50
2023-01-26T04:16:48.088Z,57.30
2023-01-26T04:17:48.031Z,56.30
2023-01-26T04:18:47.995Z,56.80
2023-01-26T04:19:47.947Z,58.30
2023-01-26T04:20:47.893Z,58.50
2023-01-26T04:21:47.844Z,58.60
2023-01-26T04:22:47.823Z,58.60
2023-01-26T04:23:47.782Z,59.40
2023-01-26T04:24:47.712Z,59.20
2023-01-26T04:25:47.672Z,59.20
2023-01-26T04:26:47.609Z,59.10
2023-01-26T04:27:47.566Z,58.50
2023-01-26T04:28:47.519Z,58.10
2023-01-26T04:29:47.468Z,58.40
2023-01-26T04:30:47.512Z,58.20
2023-01-26T04:31:47.446Z,57.30
2023-01-26T04:32:47.353Z,56.70
2023-01-26T04:33:47.288Z,55.90
2023-01-26T04:34:47.245Z,56.40
2023-01-26T04:35:47.186Z,55.90
2023-01-26T04:36:47.179Z,55.80
2023-01-26T04:37:47.087Z,56.90
2023-01-26T04:38:47.056Z,56.50
2023-01-26T04:39:47.000Z,56.20
2023-01-26T04:40:46.960Z,56.80
2023-01-26T04:41:46.911Z,56.80
2023-01-26T04:42:46.872Z,55.80
2023-01-26T04:43:46.806Z,57.00
2023-01-26T04:44:46.764Z,56.70
2023-01-26T04:45:46.760Z,55.50
2023-01-26T04:46:56.081Z,54.00
2023-01-26T04:47:46.619Z,54.10
2023-01-26T04:48:46.573Z,54.90
2023-01-26T04:49:46.539Z,54.00
2023-01-26T04:50:46.484Z,54.80
2023-01-26T04:51:46.443Z,54.90
2023-01-26T04:52:46.387Z,54.30
2023-01-26T04:53:46.359Z,55.20
2023-01-26T04:54:46.291Z,55.20
2023-01-26T04:55:46.253Z,55.00
2023-01-26T04:56:46.196Z,54.50
2023-01-26T04:57:46.145Z,54.60
2023-01-26T04:58:46.102Z,55.90
2023-01-26T04:59:46.067Z,54.40
2023-01-26T05:00:46.033Z,54.70
2023-01-26T05:01:45.960Z,55.90
2023-01-26T05:02:45.919Z,55.60
2023-01-26T05:03:45.866Z,54.70
2023-01-26T05:04:45.822Z,55.40
2023-01-26T05:05:45.790Z,56.30
2023-01-26T05:06:45.743Z,57.30
2023-01-26T05:07:45.679Z,55.70
2023-01-26T05:08:45.634Z,57.00
2023-01-26T05:09:45.585Z,55.70
2023-01-26T05:10:45.541Z,57.70
2023-01-26T05:11:45.492Z,56.90
2023-01-26T05:12:45.459Z,58.70
2023-01-26T05:13:45.397Z,56.50
2023-01-26T05:14:45.354Z,58.10
2023-01-26T05:15:45.308Z,58.00
2023-01-26T05:16:45.273Z,59.10
2023-01-26T05:17:45.211Z,58.30
2023-01-26T05:18:45.189Z,58.80
2023-01-26T05:19:45.123Z,58.10
2023-01-26T05:20:45.084Z,60.80
2023-01-26T05:21:45.021Z,60.60
2023-01-26T05:22:44.992Z,59.80
2023-01-26T05:23:44.928Z,60.70
2023-01-26T05:24:44.909Z,60.50
2023-01-26T05:25:44.836Z,61.10
2023-01-26T05:26:44.798Z,60.20
2023-01-26T05:27:44.739Z,60.30
2023-01-26T05:28:44.696Z,61.40
2023-01-26T05:29:44.666Z,60.90
2023-01-26T05:30:44.628Z,60.60
2023-01-26T05:31:44.587Z,61.40
2023-01-26T05:32:44.515Z,60.90
2023-01-26T05:33:44.470Z,61.40
2023-01-26T05:34:44.423Z,60.30
2023-01-26T05:35:44.376Z,62.30
2023-01-26T05:36:44.320Z,61.40
2023-01-26T05:37:44.277Z,61.50
2023-01-26T05:38:44.234Z,62.40
2023-01-26T05:39:44.184Z,71.70
2023-01-26T05:40:44.132Z,71.20
2023-01-26T05:41:44.097Z,67.00
2023-01-26T05:42:44.080Z,64.10
2023-01-26T05:43:43.992Z,61.30
2023-01-26T05:44:43.948Z,63.50
2023-01-26T05:45:43.951Z,60.90
2023-01-26T05:46:43.851Z,60.90
2023-01-26T05:47:43.827Z,61.00
2023-01-26T05:48:43.766Z,63.20
2023-01-26T05:49:43.715Z,60.30
2023-01-26T05:50:43.679Z,57.60
2023-01-26T05:51:43.615Z,55.10
2023-01-26T05:52:43.579Z,55.10
2023-01-26T05:53:43.530Z,56.20
2023-01-26T05:54:43.486Z,57.10
2023-01-26T05:55:43.449Z,57.00
2023-01-26T05:56:43.387Z,58.00
2023-01-26T05:57:43.355Z,58.00
2023-01-26T05:58:43.306Z,57.40
2023-01-26T05:59:43.262Z,58.60
2023-01-26T06:00:43.208Z,55.50
2023-01-26T06:01:43.158Z,56.60
2023-01-26T06:02:43.101Z,58.30
2023-01-26T06:03:43.055Z,59.10
2023-01-26T06:04:43.021Z,58.00
2023-01-26T06:05:42.963Z,57.80
2023-01-26T06:06:42.918Z,57.90
2023-01-26T06:07:42.869Z,56.70
2023-01-26T06:08:42.825Z,56.20
2023-01-26T06:09:42.793Z,56.40
2023-01-26T06:10:42.735Z,57.80
2023-01-26T06:11:42.700Z,55.00
2023-01-26T06:12:42.646Z,54.20
2023-01-26T06:13:42.593Z,54.60
2023-01-26T06:14:42.548Z,55.60
2023-01-26T06:15:42.503Z,56.10
2023-01-26T06:16:42.496Z,55.30
2023-01-26T06:17:42.402Z,55.40
2023-01-26T06:18:42.355Z,55.10
2023-01-26T06:19:42.314Z,55.40
2023-01-26T06:20:44.203Z,55.60
2023-01-26T06:21:42.223Z,54.20
2023-01-26T06:22:42.182Z,54.50
2023-01-26T06:23:42.119Z,54.50
2023-01-26T06:24:42.097Z,53.40
2023-01-26T06:25:42.044Z,53.00
2023-01-26T06:26:41.981Z,53.20
2023-01-26T06:27:42.031Z,53.10
2023-01-26T06:28:41.884Z,51.90
2023-01-26T06:29:41.841Z,51.50
2023-01-26T06:30:41.899Z,51.80
2023-01-26T06:31:41.802Z,52.70
2023-01-26T06:32:41.704Z,52.00
2023-01-26T06:33:41.657Z,51.80
2023-01-26T06:34:41.604Z,51.80
2023-01-26T06:35:41.557Z,51.20
2023-01-26T06:36:41.528Z,50.80
2023-01-26T06:37:41.465Z,51.00
2023-01-26T06:38:41.413Z,50.70
2023-01-26T06:39:41.372Z,50.70
2023-01-26T06:40:41.331Z,50.90
2023-01-26T06:41:41.278Z,49.80
2023-01-26T06:42:41.241Z,50.10
2023-01-26T06:43:41.182Z,50.10
2023-01-26T06:44:41.150Z,49.90
2023-01-26T06:45:41.091Z,49.20
2023-01-26T06:46:41.038Z,48.60
2023-01-26T06:47:40.994Z,48.30
2023-01-26T06:48:40.962Z,48.20
2023-01-26T06:49:40.902Z,47.50
2023-01-26T06:50:40.856Z,47.60
2023-01-26T06:51:40.814Z,48.00
2023-01-26T06:52:42.235Z,47.80
2023-01-26T06:53:40.715Z,48.70
2023-01-26T06:54:40.680Z,49.70
2023-01-26T06:55:40.619Z,48.50
2023-01-26T06:56:40.574Z,50.20
2023-01-26T06:57:40.526Z,50.70
2023-01-26T06:58:40.491Z,51.00
2023-01-26T06:59:40.440Z,51.50
2023-01-26T07:00:40.402Z,50.00
2023-01-26T07:01:40.351Z,47.80
2023-01-26T07:02:40.300Z,49.80
2023-01-26T07:03:40.245Z,48.80
2023-01-26T07:04:40.196Z,49.50
2023-01-26T07:05:40.164Z,49.40
2023-01-26T07:06:40.136Z,49.50
2023-01-26T07:07:40.056Z,49.30
2023-01-26T07:08:40.007Z,48.80
2023-01-26T07:09:39.973Z,48.80
2023-01-26T07:10:39.921Z,48.70
2023-01-26T07:11:39.870Z,49.40
2023-01-26T07:12:39.840Z,49.20
2023-01-26T07:13:39.779Z,50.10
2023-01-26T07:14:39.735Z,49.20
2023-01-26T07:15:39.683Z,48.70
2023-01-26T07:16:39.676Z,48.90
2023-01-26T07:17:39.609Z,48.70
2023-01-26T07:18:39.557Z,48.50
2023-01-26T07:19:39.496Z,47.80
2023-01-26T07:20:39.459Z,48.20
2023-01-26T07:21:39.404Z,47.90
2023-01-26T07:22:39.368Z,47.90
2023-01-26T07:23:39.422Z,47.60
2023-01-26T07:24:39.258Z,48.10
2023-01-26T07:25:39.221Z,49.10
2023-01-26T07:26:39.166Z,48.90
2023-01-26T07:27:39.122Z,50.00
2023-01-26T07:28:40.277Z,48.90
2023-01-26T07:29:39.032Z,50.50
2023-01-26T07:30:39.028Z,50.50
2023-01-26T07:31:38.943Z,49.70
2023-01-26T07:32:38.883Z,48.70
2023-01-26T07:33:38.845Z,50.60
2023-01-26T07:34:38.804Z,48.90
2023-01-26T07:35:38.751Z,49.80
2023-01-26T07:36:38.700Z,48.70
2023-01-26T07:37:38.661Z,50.50
2023-01-26T07:38:38.622Z,48.80
2023-01-26T07:39:38.560Z,48.80
2023-01-26T07:40:38.521Z,50.00
2023-01-26T07:41:38.470Z,49.90
2023-01-26T07:42:38.421Z,47.90
2023-01-26T07:43:38.468Z,48.60
2023-01-26T07:44:38.325Z,50.80
2023-01-26T07:45:38.299Z,49.50
2023-01-26T07:46:38.317Z,50.50
2023-01-26T07:47:38.186Z,49.60
2023-01-26T07:48:38.137Z,50.50
2023-01-26T07:49:38.133Z,49.00
2023-01-26T07:50:38.076Z,48.50
2023-01-26T07:51:38.014Z,50.30
2023-01-26T07:52:37.949Z,46.70
2023-01-26T07:53:37.910Z,48.20
2023-01-26T07:54:37.858Z,47.70
2023-01-26T07:55:37.812Z,47.50
2023-01-26T07:56:37.772Z,45.90
2023-01-26T07:57:37.728Z,45.50
2023-01-26T07:58:37.671Z,45.70
2023-01-26T07:59:37.640Z,45.60
2023-01-26T08:00:37.590Z,45.40
2023-01-26T08:01:37.556Z,45.70
2023-01-26T08:02:37.529Z,45.20
2023-01-26T08:03:37.440Z,45.50
2023-01-26T08:04:37.411Z,45.40
2023-01-26T08:05:37.365Z,45.50
2023-01-26T08:06:37.297Z,45.50
2023-01-26T08:07:37.259Z,45.30
2023-01-26T08:08:37.206Z,45.60
2023-01-26T08:09:37.161Z,44.70
2023-01-26T08:10:37.121Z,45.10
2023-01-26T08:11:37.073Z,43.80
2023-01-26T08:12:40.144Z,44.50
2023-01-26T08:13:36.978Z,45.10
2023-01-26T08:14:46.502Z,45.40
2023-01-26T08:15:36.881Z,45.20
2023-01-26T08:16:36.912Z,45.70
2023-01-26T08:17:36.790Z,45.40
2023-01-26T08:18:36.739Z,45.30
2023-01-26T08:19:37.576Z,45.50
2023-01-26T08:20:36.651Z,45.40
2023-01-26T08:21:36.614Z,46.00
2023-01-26T08:22:36.556Z,46.00
2023-01-26T08:23:36.511Z,44.90
2023-01-26T08:24:36.460Z,45.40
2023-01-26T08:25:36.418Z,45.30
2023-01-26T08:26:36.376Z,45.50
2023-01-26T08:27:36.340Z,45.70
2023-01-26T08:28:36.288Z,45.50
2023-01-26T08:29:36.233Z,44.30
2023-01-26T08:30:36.183Z,45.70
2023-01-26T08:31:36.171Z,46.40
2023-01-26T08:32:36.088Z,44.70
2023-01-26T08:33:36.060Z,47.00
2023-01-26T08:34:36.007Z,44.70
2023-01-26T08:35:35.956Z,45.70
2023-01-26T08:36:35.904Z,46.30
2023-01-26T08:37:35.865Z,44.20
2023-01-26T08:38:35.826Z,45.50
2023-01-26T08:39:35.780Z,45.40
2023-01-26T08:40:35.719Z,46.30
2023-01-26T08:41:35.679Z,45.50
2023-01-26T08:42:35.626Z,45.40
2023-01-26T08:43:35.588Z,45.30
2023-01-26T08:44:35.536Z,45.70
2023-01-26T08:45:35.518Z,45.30
2023-01-26T08:46:35.438Z,46.60
2023-01-26T08:47:35.408Z,46.30
2023-01-26T08:48:35.343Z,46.10
2023-01-26T08:49:35.308Z,46.80
2023-01-26T08:50:35.260Z,47.10
2023-01-26T08:51:35.222Z,46.70
2023-01-26T08:52:35.165Z,46.00
2023-01-26T08:53:35.120Z,46.10
2023-01-26T08:54:35.079Z,45.10
2023-01-26T08:55:35.037Z,44.40
2023-01-26T08:56:34.992Z,44.00
2023-01-26T08:57:34.939Z,45.50
2023-01-26T08:58:34.908Z,44.30
2023-01-26T08:59:34.842Z,43.90
2023-01-26T09:00:34.805Z,44.80
2023-01-26T09:01:34.754Z,43.60
2023-01-26T09:02:34.868Z,41.90
2023-01-26T09:03:34.668Z,42.10
2023-01-26T09:04:34.623Z,41.80
2023-01-26T09:05:34.579Z,41.70
2023-01-26T09:06:34.526Z,40.90
2023-01-26T09:07:34.479Z,40.80
2023-01-26T09:08:34.423Z,40.10
2023-01-26T09:09:34.402Z,39.50
2023-01-26T09:10:34.333Z,40.10
2023-01-26T09:11:34.304Z,39.30
2023-01-26T09:12:34.244Z,40.50
2023-01-26T09:13:34.196Z,38.90
2023-01-26T09:14:34.147Z,38.50
2023-01-26T09:15:34.107Z,39.50
2023-01-26T09:16:34.191Z,39.10
2023-01-26T09:17:34.022Z,39.40
2023-01-26T09:18:34.008Z,39.80
2023-01-26T09:19:33.925Z,40.00
2023-01-26T09:20:33.876Z,39.20
2023-01-26T09:21:33.845Z,39.70
2023-01-26T09:22:33.798Z,39.40
2023-01-26T09:23:33.745Z,39.10
2023-01-26T09:24:33.688Z,39.20
2023-01-26T09:25:33.649Z,40.30
2023-01-26T09:26:33.600Z,40.10
2023-01-26T09:27:33.586Z,39.80
2023-01-26T09:28:33.528Z,39.80
2023-01-26T09:29:33.466Z,39.90
2023-01-26T09:30:33.568Z,39.80
2023-01-26T09:31:33.538Z,39.70
2023-01-26T09:32:33.321Z,40.20
2023-01-26T09:33:33.274Z,41.70
2023-01-26T09:34:33.238Z,40.20
2023-01-26T09:35:33.252Z,40.70
2023-01-26T09:36:33.154Z,41.20
2023-01-26T09:37:33.097Z,41.90
2023-01-26T09:38:33.054Z,42.10
2023-01-26T09:39:33.032Z,40.90
2023-01-26T09:40:32.967Z,42.20
2023-01-26T09:41:32.922Z,41.90
2023-01-26T09:42:32.859Z,42.20
2023-01-26T09:43:32.816Z,42.20
2023-01-26T09:44:32.769Z,40.70
2023-01-26T09:45:32.729Z,41.70
2023-01-26T09:46:32.810Z,42.60
2023-01-26T09:47:32.640Z,43.10
2023-01-26T09:48:32.592Z,42.20
2023-01-26T09:49:32.549Z,43.10
2023-01-26T09:50:32.518Z,43.10
2023-01-26T09:51:32.468Z,42.10
2023-01-26T09:52:32.407Z,43.40
2023-01-26T09:53:32.363Z,43.00
2023-01-26T09:54:32.316Z,42.90
2023-01-26T09:55:32.287Z,43.20
2023-01-26T09:56:32.218Z,44.50
2023-01-26T09:57:32.195Z,45.40
2023-01-26T09:58:32.126Z,43.70
2023-01-26T09:59:32.133Z,44.50
2023-01-26T10:00:32.032Z,44.60
2023-01-26T10:01:32.038Z,45.70
2023-01-26T10:02:31.986Z,44.80
2023-01-26T10:03:31.909Z,45.50
2023-01-26T10:04:31.855Z,45.50
2023-01-26T10:05:31.826Z,45.60
2023-01-26T10:06:31.770Z,45.80
2023-01-26T10:07:31.731Z,46.90
2023-01-26T10:08:31.663Z,45.30
2023-01-26T10:09:31.631Z,45.10
2023-01-26T10:10:31.608Z,45.00
2023-01-26T10:11:31.534Z,43.80
2023-01-26T10:12:31.509Z,45.80
2023-01-26T10:13:31.445Z,45.20
2023-01-26T10:14:31.402Z,46.30
2023-01-26T10:15:31.378Z,45.90
2023-01-26T10:16:31.306Z,44.90
2023-01-26T10:17:31.270Z,45.80
2023-01-26T10:18:31.230Z,45.40
2023-01-26T10:19:31.164Z,45.40
2023-01-26T10:20:31.164Z,45.40
2023-01-26T10:21:31.073Z,44.60
2023-01-26T10:22:31.026Z,44.50
2023-01-26T10:23:30.990Z,44.30
2023-01-26T10:24:30.938Z,44.20
2023-01-26T10:25:30.903Z,44.20
2023-01-26T10:26:30.861Z,45.70
2023-01-26T10:27:30.808Z,46.50
2023-01-26T10:28:30.757Z,44.30
2023-01-26T10:29:30.708Z,43.20
2023-01-26T10:30:30.685Z,45.30
2023-01-26T10:31:30.686Z,44.10
2023-01-26T10:32:30.572Z,45.60
2023-01-26T10:33:30.522Z,44.40
2023-01-26T10:34:30.496Z,44.70
2023-01-26T10:35:30.431Z,45.60
2023-01-26T10:36:30.398Z,47.20
2023-01-26T10:37:30.343Z,45.40
2023-01-26T10:38:30.307Z,44.20
2023-01-26T10:39:30.247Z,44.50
2023-01-26T10:40:30.214Z,44.30
2023-01-26T10:41:30.177Z,43.60
2023-01-26T10:42:30.112Z,44.40
2023-01-26T10:43:30.070Z,43.40
2023-01-26T10:44:30.017Z,44.00
2023-01-26T10:45:29.981Z,42.50
2023-01-26T10:46:29.955Z,43.30
2023-01-26T10:47:39.147Z,42.80
2023-01-26T10:48:29.839Z,43.20
2023-01-26T10:49:29.790Z,43.30
2023-01-26T10:50:29.767Z,43.20
2023-01-26T10:51:29.726Z,43.20
2023-01-26T10:52:29.653Z,41.90
2023-01-26T10:53:29.632Z,43.00
2023-01-26T10:54:29.570Z,44.00
2023-01-26T10:55:29.516Z,43.50
2023-01-26T10:56:29.476Z,42.40
2023-01-26T10:57:29.479Z,42.40
2023-01-26T10:58:29.382Z,43.20
2023-01-26T10:59:29.331Z,44.00
2023-01-26T11:00:29.299Z,41.60
2023-01-26T11:01:29.263Z,42.00
2023-01-26T11:02:29.283Z,42.20
2023-01-26T11:03:29.175Z,41.10
2023-01-26T11:04:29.109Z,42.10
2023-01-26T11:05:29.080Z,40.50
2023-01-26T11:06:29.045Z,40.70
2023-01-26T11:07:28.968Z,39.10
2023-01-26T11:08:28.929Z,38.60
2023-01-26T11:09:28.909Z,38.80
2023-01-26T11:10:28.835Z,39.50
2023-01-26T11:11:28.802Z,37.50
2023-01-26T11:12:28.743Z,37.80
2023-01-26T11:13:28.697Z,36.60
2023-01-26T11:14:28.671Z,36.60
2023-01-26T11:15:28.616Z,37.50
2023-01-26T11:16:28.580Z,36.90
2023-01-26T11:17:28.513Z,36.60
2023-01-26T11:18:28.470Z,36.20
2023-01-26T11:19:28.419Z,35.50
2023-01-26T11:20:28.399Z,35.50
2023-01-26T11:21:28.331Z,37.00
2023-01-26T11:22:28.288Z,36.30
2023-01-26T11:23:28.239Z,36.60
2023-01-26T11:24:28.217Z,35.80
2023-01-26T11:25:28.175Z,36.40
2023-01-26T11:26:28.102Z,36.00
2023-01-26T11:27:28.059Z,36.50
2023-01-26T11:28:28.015Z,37.90
2023-01-26T11:29:27.973Z,36.80
2023-01-26T11:30:27.934Z,36.50
2023-01-26T11:31:27.908Z,38.10
2023-01-26T11:32:27.832Z,36.20
2023-01-26T11:33:27.810Z,36.40
2023-01-26T11:34:27.740Z,37.10
2023-01-26T11:35:27.692Z,35.50
2023-01-26T11:36:27.651Z,36.70
2023-01-26T11:37:27.619Z,36.60
2023-01-26T11:38:27.572Z,35.70
2023-01-26T11:39:27.526Z,35.90
2023-01-26T11:40:27.473Z,36.00
2023-01-26T11:41:27.443Z,36.00
2023-01-26T11:42:27.379Z,36.40
2023-01-26T11:43:27.355Z,36.90
2023-01-26T11:44:27.291Z,35.70
2023-01-26T11:45:27.320Z,36.30
2023-01-26T11:46:27.215Z,37.00
2023-01-26T11:47:27.147Z,36.40
2023-01-26T11:48:27.127Z,36.60
2023-01-26T11:49:27.058Z,35.50
2023-01-26T11:50:27.026Z,36.50
2023-01-26T11:51:27.019Z,35.80
2023-01-26T11:52:26.924Z,36.10
2023-01-26T11:53:26.909Z,35.90
2023-01-26T11:54:26.838Z,35.70
2023-01-26T11:55:26.795Z,36.60
2023-01-26T11:56:26.757Z,36.70
2023-01-26T11:57:26.696Z,36.30
2023-01-26T11:58:26.649Z,36.00
2023-01-26T11:59:26.606Z,36.40
2023-01-26T12:00:30.455Z,37.50
2023-01-26T12:01:26.531Z,35.90
2023-01-26T12:02:27.940Z,34.50
2023-01-26T12:03:26.433Z,35.40
2023-01-26T12:04:26.384Z,36.50
2023-01-26T12:05:26.331Z,37.20
2023-01-26T12:06:26.307Z,36.40
2023-01-26T12:07:26.237Z,35.50
2023-01-26T12:08:26.223Z,34.80
2023-01-26T12:09:26.149Z,35.80
2023-01-26T12:10:26.106Z,35.80
2023-01-26T12:11:26.069Z,34.40
2023-01-26T12:12:26.020Z,33.10
2023-01-26T12:13:25.966Z,33.70
2023-01-26T12:14:25.945Z,34.10
2023-01-26T12:15:25.878Z,33.20
2023-01-26T12:16:25.842Z,32.70
2023-01-26T12:17:25.795Z,32.20
2023-01-26T12:18:38.117Z,30.80
2023-01-26T12:19:25.703Z,31.40
2023-01-26T12:20:25.673Z,32.00
2023-01-26T12:21:25.605Z,31.30
2023-01-26T12:22:25.605Z,30.70
2023-01-26T12:23:25.530Z,30.80
2023-01-26T12:25:08.246Z,30.70
2023-01-26T12:25:25.423Z,30.30
2023-01-26T12:26:25.453Z,30.20
2023-01-26T12:27:25.330Z,29.20
2023-01-26T12:28:25.309Z,29.80
2023-01-26T12:29:25.243Z,30.40
2023-01-26T12:30:25.321Z,30.50
2023-01-26T12:31:25.249Z,30.10
2023-01-26T12:32:25.105Z,29.40
2023-01-26T12:33:25.081Z,29.40
2023-01-26T12:34:25.032Z,29.40
2023-01-26T12:35:24.970Z,28.30
2023-01-26T12:36:24.961Z,30.00
2023-01-26T12:37:24.893Z,29.00
2023-01-26T12:38:24.850Z,29.70
2023-01-26T12:39:24.788Z,29.30
2023-01-26T12:40:24.939Z,29.20
2023-01-26T12:41:24.702Z,29.00
2023-01-26T12:42:24.672Z,28.50
2023-01-26T12:43:24.624Z,28.70
2023-01-26T12:44:24.574Z,29.40
2023-01-26T12:45:24.525Z,29.10
2023-01-26T12:46:24.552Z,29.10
2023-01-26T12:47:24.440Z,30.00
2023-01-26T12:48:24.408Z,29.40
2023-01-26T12:49:24.404Z,29.90
2023-01-26T12:50:24.302Z,29.10
2023-01-26T12:51:24.255Z,29.60